Time;durP1;ratioP1;P1;durP2;ratioP2;P2;SDS_P1;SDS_P2;PMS_P1;PMS_P2;Temp;Humidity;BMP_temperature;BMP_pressure;BME280_temperature;BME280_humidity;BME280_pressure;Samples;Min_cycle;Max_cycle;Signal;HPM_P1;HPM_P2
2024/01/10 00:01:40;;;;;;;23.30;10.10;;;-2.60;67.70;;;;;;4921537;28;20228;-70
2024/01/10 00:04:05;;;;;;;21.80;11.17;;;-2.60;67.50;;;;;;4949267;28;20193;-70
2024/01/10 00:06:31;;;;;;;22.50;10.90;;;-2.60;67.50;;;;;;4929177;28;20188;-70
2024/01/10 00:08:56;;;;;;;16.93;10.50;;;-2.60;67.30;;;;;;4929721;28;20189;-70
2024/01/10 00:11:22;;;;;;;25.40;12.17;;;-2.60;67.20;;;;;;4924092;28;20271;-71
2024/01/10 00:13:48;;;;;;;28.83;12.37;;;-2.50;66.90;;;;;;4929769;28;20321;-71
2024/01/10 00:16:14;;;;;;;18.00;9.57;;;-2.50;66.90;;;;;;4925369;29;20192;-71
2024/01/10 00:18:40;;;;;;;22.17;9.68;;;-2.50;66.70;;;;;;4927506;28;20686;-72
2024/01/10 00:21:07;;;;;;;19.93;9.50;;;-2.50;66.30;;;;;;4926592;28;20216;-71
2024/01/10 00:23:32;;;;;;;26.33;10.15;;;-2.40;66.00;;;;;;4945062;28;20220;-72
2024/01/10 00:25:58;;;;;;;24.80;9.83;;;-2.40;65.30;;;;;;4934161;28;20189;-70
2024/01/10 00:28:24;;;;;;;22.27;9.60;;;-2.40;65.40;;;;;;4954225;28;20257;-69
2024/01/10 00:30:50;;;;;;;24.55;10.80;;;-2.40;65.60;;;;;;4928931;28;20281;-71
2024/01/10 00:33:16;;;;;;;23.23;10.30;;;-2.40;65.80;;;;;;4946443;28;20602;-71
2024/01/10 00:35:41;;;;;;;29.40;11.87;;;-2.40;66.00;;;;;;4938816;28;20342;-69
2024/01/10 00:38:07;;;;;;;21.67;9.77;;;-2.30;65.80;;;;;;4929799;29;20933;-71
2024/01/10 00:40:32;;;;;;;19.90;11.07;;;-2.40;65.80;;;;;;4923722;28;20213;-72
2024/01/10 00:42:58;;;;;;;23.10;10.90;;;-2.40;65.80;;;;;;4933077;28;20230;-71
2024/01/10 00:45:24;;;;;;;24.90;10.57;;;-2.40;65.60;;;;;;4945045;28;20596;-71
2024/01/10 00:47:50;;;;;;;20.30;9.67;;;-2.40;65.40;;;;;;4968840;28;20184;-70
2024/01/10 00:50:16;;;;;;;27.80;11.27;;;-2.40;65.10;;;;;;4927819;28;20221;-72
2024/01/10 00:52:42;;;;;;;24.10;10.88;;;-2.40;65.40;;;;;;4933936;28;20443;-69
2024/01/10 00:55:08;;;;;;;30.10;11.68;;;-2.40;65.40;;;;;;4936426;29;20211;-71
2024/01/10 00:57:33;;;;;;;17.80;9.03;;;-2.40;65.40;;;;;;4931165;29;20571;-70
2024/01/10 00:59:59;;;;;;;22.03;10.83;;;-2.40;65.40;;;;;;4924898;28;20217;-70
2024/01/10 01:02:25;;;;;;;20.33;10.77;;;-2.30;65.40;;;;;;4933073;28;20216;-71
2024/01/10 01:04:50;;;;;;;24.30;11.10;;;-2.30;65.40;;;;;;4929452;28;20185;-70
2024/01/10 01:07:16;;;;;;;28.60;10.60;;;-2.30;65.10;;;;;;4937033;28;20258;-71
2024/01/10 01:09:41;;;;;;;27.07;10.63;;;-2.40;65.10;;;;;;4928102;28;20185;-71
2024/01/10 01:12:07;;;;;;;19.10;9.87;;;-2.40;65.00;;;;;;4924368;28;20200;-70
2024/01/10 01:14:33;;;;;;;28.07;11.03;;;-2.40;65.00;;;;;;4929369;29;20562;-72
2024/01/10 01:16:58;;;;;;;30.73;11.80;;;-2.30;64.70;;;;;;4925753;29;20231;-72
2024/01/10 01:19:24;;;;;;;25.03;11.20;;;-2.30;64.40;;;;;;4930285;29;20428;-70
2024/01/10 01:21:50;;;;;;;21.23;10.07;;;-2.30;64.40;;;;;;4924443;28;20786;-71
2024/01/10 01:24:15;;;;;;;20.73;10.97;;;-2.30;64.40;;;;;;4929454;28;20189;-72
2024/01/10 01:26:41;;;;;;;23.67;11.30;;;-2.30;64.10;;;;;;4929146;28;20221;-71
2024/01/10 01:29:08;;;;;;;26.30;10.50;;;-2.30;64.10;;;;;;4929462;28;20216;-69
2024/01/10 01:31:34;;;;;;;25.10;11.93;;;-2.20;64.40;;;;;;4926051;28;20575;-70
2024/01/10 01:33:59;;;;;;;24.53;11.87;;;-2.20;63.90;;;;;;4931332;29;20177;-69
2024/01/10 01:36:25;;;;;;;21.70;10.10;;;-2.20;63.70;;;;;;4937367;28;20196;-71
2024/01/10 01:38:51;;;;;;;24.00;10.93;;;-2.20;63.80;;;;;;4950465;28;20622;-71
2024/01/10 01:41:17;;;;;;;21.27;11.10;;;-2.20;64.10;;;;;;4927848;28;20593;-69
2024/01/10 01:43:43;;;;;;;21.38;10.25;;;-2.20;64.20;;;;;;4952009;28;20275;-70
2024/01/10 01:46:08;;;;;;;22.10;10.87;;;-2.30;64.40;;;;;;4930718;28;20792;-69
2024/01/10 01:48:35;;;;;;;25.10;11.03;;;-2.20;64.70;;;;;;4926485;28;20203;-71
2024/01/10 01:51:04;;;;;;;22.38;11.32;;;-2.20;64.80;;;;;;4945937;28;20215;-71
2024/01/10 01:53:30;;;;;;;21.55;10.63;;;-2.10;64.80;;;;;;4946294;28;20272;-71
2024/01/10 01:55:56;;;;;;;27.97;10.53;;;-2.20;64.50;;;;;;4930949;29;20268;-71
2024/01/10 01:58:23;;;;;;;22.38;11.55;;;-2.20;64.70;;;;;;4930138;29;20443;-69
2024/01/10 02:00:49;;;;;;;21.10;10.85;;;-2.30;64.20;;;;;;4924696;28;20223;-70
2024/01/10 02:03:15;;;;;;;23.45;11.50;;;-2.30;64.50;;;;;;4932693;29;20188;-69
2024/01/10 02:05:41;;;;;;;23.00;10.47;;;-2.30;64.80;;;;;;4929609;28;20254;-70
2024/01/10 02:08:08;;;;;;;23.27;11.10;;;-2.30;65.00;;;;;;4930335;28;20225;-70
2024/01/10 02:10:34;;;;;;;29.25;10.57;;;-2.30;65.00;;;;;;4925037;28;20456;-70
2024/01/10 02:13:00;;;;;;;27.80;11.10;;;-2.20;65.00;;;;;;4930280;29;20212;-71
2024/01/10 02:15:26;;;;;;;25.27;10.95;;;-2.30;64.80;;;;;;4937012;28;20195;-70
2024/01/10 02:17:52;;;;;;;25.43;12.43;;;-2.30;65.00;;;;;;4944997;29;20181;-70
2024/01/10 02:20:18;;;;;;;29.73;11.40;;;-2.30;65.00;;;;;;4939438;28;20250;-71
2024/01/10 02:22:44;;;;;;;23.20;10.63;;;-2.30;65.00;;;;;;4944372;28;20231;-69
2024/01/10 02:25:13;;;;;;;25.13;10.95;;;-2.30;65.00;;;;;;4943916;28;20424;-72
2024/01/10 02:27:40;;;;;;;20.10;11.10;;;-2.30;65.00;;;;;;4944564;28;20232;-69
2024/01/10 02:30:08;;;;;;;26.55;11.35;;;-2.30;65.00;;;;;;4928487;29;20301;-71
2024/01/10 02:32:34;;;;;;;24.73;10.93;;;-2.30;65.00;;;;;;4931931;28;20188;-70
2024/01/10 02:35:00;;;;;;;27.75;10.77;;;-2.40;65.00;;;;;;4929114;29;20184;-70
2024/01/10 02:37:26;;;;;;;25.87;11.10;;;-2.40;64.70;;;;;;4931663;29;20277;-70
2024/01/10 02:39:51;;;;;;;22.87;9.90;;;-2.40;64.70;;;;;;4928833;29;20436;-71
2024/01/10 02:42:17;;;;;;;27.00;10.20;;;-2.40;65.00;;;;;;4944109;28;20271;-71
2024/01/10 02:44:43;;;;;;;23.70;11.53;;;-2.40;65.30;;;;;;4932643;28;20271;-70
2024/01/10 02:47:10;;;;;;;23.80;10.27;;;-2.50;65.60;;;;;;4932568;29;20196;-71
2024/01/10 02:49:35;;;;;;;24.13;10.52;;;-2.60;66.10;;;;;;4931333;29;20215;-70
2024/01/10 02:52:01;;;;;;;22.50;10.60;;;-2.50;66.30;;;;;;4926124;28;20192;-70
2024/01/10 02:54:26;;;;;;;27.57;12.03;;;-2.50;66.40;;;;;;4930037;28;20253;-70
2024/01/10 02:56:52;;;;;;;26.63;12.73;;;-2.50;66.60;;;;;;4931072;29;20626;-69
2024/01/10 02:59:18;;;;;;;25.93;12.10;;;-2.50;67.00;;;;;;4929210;28;20185;-70
2024/01/10 03:01:44;;;;;;;24.40;12.50;;;-2.60;67.70;;;;;;4925944;29;20224;-70
2024/01/10 03:04:10;;;;;;;22.33;12.10;;;-2.50;68.00;;;;;;4937593;28;20721;-71
2024/01/10 03:06:35;;;;;;;28.98;12.38;;;-2.50;68.20;;;;;;4933493;29;20437;-72
2024/01/10 03:09:01;;;;;;;28.37;12.27;;;-2.50;68.20;;;;;;4928699;28;20737;-70
2024/01/10 03:11:27;;;;;;;22.87;11.70;;;-2.50;68.20;;;;;;4928117;29;20225;-71
2024/01/10 03:14:01;;;;;;;27.57;13.10;;;-2.50;67.90;;;;;;4931384;29;20189;-71
2024/01/10 03:16:28;;;;;;;26.25;13.05;;;-2.60;67.30;;;;;;4931395;29;20291;-70
2024/01/10 03:18:53;;;;;;;24.58;12.70;;;-2.80;68.00;;;;;;4928959;29;20188;-70
2024/01/10 03:21:24;;;;;;;34.23;13.67;;;-2.80;68.30;;;;;;4929353;29;20746;-71
2024/01/10 03:23:55;;;;;;;27.52;13.98;;;-2.70;68.60;;;;;;4938289;29;20251;-70
2024/01/10 03:26:20;;;;;;;28.83;12.57;;;-2.70;68.50;;;;;;4929166;29;20208;-71
2024/01/10 03:28:46;;;;;;;25.23;12.10;;;-2.70;68.60;;;;;;4939625;28;20208;-70
2024/01/10 03:31:12;;;;;;;31.70;12.97;;;-2.70;68.60;;;;;;4930545;29;20757;-69
2024/01/10 03:33:37;;;;;;;21.70;12.40;;;-2.70;68.60;;;;;;4927434;28;20204;-71
2024/01/10 03:36:03;;;;;;;25.57;12.63;;;-2.60;68.80;;;;;;4933015;29;20266;-70
2024/01/10 03:38:29;;;;;;;26.30;11.90;;;-2.70;68.60;;;;;;4931627;29;20189;-70
2024/01/10 03:40:55;;;;;;;28.67;11.40;;;-2.60;68.60;;;;;;4923980;29;20509;-70
2024/01/10 03:43:20;;;;;;;31.77;12.97;;;-2.60;68.50;;;;;;4930808;28;20185;-71
2024/01/10 03:45:46;;;;;;;28.90;13.03;;;-2.60;68.30;;;;;;4931300;28;20189;-70
2024/01/10 03:48:11;;;;;;;23.67;13.20;;;-2.60;68.30;;;;;;4929517;29;20212;-70
2024/01/10 03:50:37;;;;;;;32.93;13.83;;;-2.60;68.30;;;;;;4925733;28;20204;-72
2024/01/10 03:53:03;;;;;;;28.53;12.97;;;-2.60;68.50;;;;;;4929714;29;20213;-70
2024/01/10 03:55:29;;;;;;;28.97;13.73;;;-2.50;68.50;;;;;;4931010;29;20436;-69
2024/01/10 03:57:56;;;;;;;27.95;13.60;;;-2.50;68.50;;;;;;4928065;29;20189;-71
2024/01/10 04:00:21;;;;;;;24.75;12.77;;;-2.50;68.30;;;;;;4925204;28;20213;-69
2024/01/10 04:02:47;;;;;;;31.90;14.10;;;-2.50;68.60;;;;;;4928077;29;20216;-71
2024/01/10 04:05:13;;;;;;;38.53;14.33;;;-2.50;68.80;;;;;;4931965;29;20274;-72
2024/01/10 04:07:43;;;;;;;27.00;12.63;;;-2.50;68.90;;;;;;4928208;29;20196;-69
2024/01/10 04:10:10;;;;;;;25.15;12.30;;;-2.60;68.90;;;;;;4925694;29;20212;-71
2024/01/10 04:12:37;;;;;;;25.65;13.40;;;-2.60;69.20;;;;;;4930315;29;20621;-71
2024/01/10 04:15:04;;;;;;;27.73;13.63;;;-2.60;69.40;;;;;;4925061;28;20185;-71
2024/01/10 04:17:30;;;;;;;32.58;14.30;;;-2.50;69.40;;;;;;4930409;28;20181;-70
2024/01/10 04:19:56;;;;;;;21.50;12.23;;;-2.50;69.40;;;;;;4926816;28;20551;-71
2024/01/10 04:22:23;;;;;;;30.85;14.13;;;-2.50;69.40;;;;;;4947408;28;20476;-71
2024/01/10 04:24:49;;;;;;;32.85;14.20;;;-2.50;69.50;;;;;;4931356;28;20193;-71
2024/01/10 04:27:15;;;;;;;37.92;14.30;;;-2.50;69.50;;;;;;4926044;28;20654;-70
2024/01/10 04:29:41;;;;;;;34.03;13.57;;;-2.50;69.50;;;;;;4926474;28;20196;-72
2024/01/10 04:32:06;;;;;;;30.93;13.77;;;-2.60;69.50;;;;;;4929828;28;20240;-71
2024/01/10 04:34:32;;;;;;;32.93;14.27;;;-2.60;69.90;;;;;;4930397;28;20234;-70
2024/01/10 04:36:58;;;;;;;32.77;13.67;;;-2.60;70.10;;;;;;4931036;29;20197;-69
2024/01/10 04:39:23;;;;;;;30.07;14.17;;;-2.60;69.90;;;;;;4930047;29;20192;-70
2024/01/10 04:41:49;;;;;;;35.50;14.53;;;-2.40;69.90;;;;;;4925143;28;20235;-70
2024/01/10 04:44:14;;;;;;;28.43;14.03;;;-2.40;69.70;;;;;;4934213;29;20259;-72
2024/01/10 04:46:41;;;;;;;29.43;13.93;;;-2.40;69.50;;;;;;4934500;28;20204;-71
2024/01/10 04:49:07;;;;;;;32.08;14.30;;;-2.40;69.50;;;;;;4931357;28;20274;-72
2024/01/10 04:51:32;;;;;;;29.57;14.10;;;-2.50;69.70;;;;;;4923292;28;20237;-70
2024/01/10 04:53:58;;;;;;;27.07;12.23;;;-2.30;69.80;;;;;;4938264;29;20238;-70
2024/01/10 04:56:23;;;;;;;29.20;13.67;;;-2.30;69.50;;;;;;4946744;28;20274;-71
2024/01/10 04:58:49;;;;;;;28.43;14.00;;;-2.30;69.40;;;;;;4938631;28;20246;-71
2024/01/10 05:01:15;;;;;;;36.93;14.33;;;-2.40;68.90;;;;;;4916070;28;20256;-71
2024/01/10 05:03:40;;;;;;;27.90;13.20;;;-2.40;69.10;;;;;;4930894;28;20188;-71
2024/01/10 05:06:06;;;;;;;31.47;14.07;;;-2.30;69.20;;;;;;4930344;29;20203;-71
2024/01/10 05:08:32;;;;;;;24.15;13.40;;;-2.30;69.10;;;;;;4932299;29;20578;-71
2024/01/10 05:10:58;;;;;;;32.77;14.60;;;-2.30;69.20;;;;;;4923460;28;20223;-71
2024/01/10 05:13:23;;;;;;;32.10;14.47;;;-2.20;68.80;;;;;;4936410;29;20191;-70
2024/01/10 05:15:49;;;;;;;30.43;14.00;;;-2.30;68.80;;;;;;4933918;29;20199;-72
2024/01/10 05:18:16;;;;;;;31.47;15.37;;;-2.30;68.80;;;;;;4932519;29;20677;-71
2024/01/10 05:20:42;;;;;;;42.83;18.00;;;-2.40;68.90;;;;;;4929345;28;20308;-70
2024/01/10 05:23:08;;;;;;;32.83;14.57;;;-2.50;69.40;;;;;;4932036;29;20218;-69
2024/01/10 05:25:33;;;;;;;31.93;15.10;;;-2.40;69.50;;;;;;4936374;29;20193;-71
2024/01/10 05:27:59;;;;;;;33.20;14.80;;;-2.50;69.40;;;;;;4940331;28;20240;-71
2024/01/10 05:30:25;;;;;;;34.40;14.10;;;-2.40;69.50;;;;;;4929177;28;20284;-71
2024/01/10 05:32:51;;;;;;;30.27;13.73;;;-2.40;69.40;;;;;;4932764;28;20207;-71
2024/01/10 05:35:16;;;;;;;32.27;14.10;;;-2.30;69.40;;;;;;4939477;28;20548;-70
2024/01/10 05:37:42;;;;;;;31.70;15.17;;;-2.50;69.50;;;;;;4933432;28;20181;-69
2024/01/10 05:40:08;;;;;;;31.43;14.60;;;-2.40;69.70;;;;;;4929590;28;20205;-72
2024/01/10 05:42:34;;;;;;;36.17;14.95;;;-2.40;69.70;;;;;;4928954;28;20240;-69
2024/01/10 05:45:02;;;;;;;30.60;14.13;;;-2.40;69.70;;;;;;4932317;29;20661;-71
2024/01/10 05:47:27;;;;;;;31.42;13.93;;;-2.50;69.70;;;;;;4933340;29;20195;-71
2024/01/10 05:49:53;;;;;;;31.90;14.90;;;-2.50;69.90;;;;;;4929943;28;20217;-71
2024/01/10 05:52:20;;;;;;;25.35;13.30;;;-2.50;70.10;;;;;;4932916;29;20512;-72
2024/01/10 05:54:48;;;;;;;29.55;13.65;;;-2.50;69.90;;;;;;4933677;28;20192;-71
2024/01/10 05:57:14;;;;;;;25.52;13.40;;;-2.50;69.90;;;;;;4946558;28;20193;-70
2024/01/10 05:59:40;;;;;;;28.90;14.18;;;-2.50;70.10;;;;;;4934713;28;20192;-69
2024/01/10 06:02:05;;;;;;;25.73;13.50;;;-2.60;70.10;;;;;;4924261;28;20224;-69
2024/01/10 06:04:31;;;;;;;27.37;14.10;;;-2.60;70.20;;;;;;4934560;29;20189;-72
2024/01/10 06:07:00;;;;;;;30.90;14.00;;;-2.50;70.40;;;;;;4942706;28;20199;-72
2024/01/10 06:09:26;;;;;;;30.88;13.82;;;-2.60;70.40;;;;;;4939875;28;20457;-71
2024/01/10 06:11:52;;;;;;;27.70;13.77;;;-2.70;70.70;;;;;;4932137;28;20265;-71
2024/01/10 06:14:17;;;;;;;30.13;14.13;;;-2.70;70.70;;;;;;4935912;29;20233;-70
2024/01/10 06:16:44;;;;;;;33.70;13.97;;;-2.90;70.80;;;;;;4939972;29;20181;-72
2024/01/10 06:19:11;;;;;;;33.00;15.23;;;-3.10;71.10;;;;;;4934481;28;20185;-72
2024/01/10 06:21:37;;;;;;;33.00;14.85;;;-3.20;71.70;;;;;;4936577;28;20221;-71
2024/01/10 06:24:03;;;;;;;27.85;13.73;;;-3.30;72.10;;;;;;4935706;28;20189;-70
2024/01/10 06:26:29;;;;;;;31.80;14.63;;;-3.20;72.30;;;;;;4931256;29;20259;-70
2024/01/10 06:28:55;;;;;;;31.03;14.80;;;-3.10;72.40;;;;;;4929455;29;20209;-70
2024/01/10 06:31:21;;;;;;;31.17;14.07;;;-3.00;72.70;;;;;;4932923;28;20200;-70
2024/01/10 06:33:47;;;;;;;35.33;15.13;;;-2.90;72.60;;;;;;4936681;28;20184;-71
2024/01/10 06:36:13;;;;;;;36.75;15.80;;;-2.80;72.10;;;;;;4933533;28;20196;-71
2024/01/10 06:38:39;;;;;;;32.35;14.45;;;-2.80;71.80;;;;;;4936127;29;20199;-72
2024/01/10 06:41:13;;;;;;;31.40;13.52;;;-2.80;71.80;;;;;;4933771;28;20744;-72
2024/01/10 06:43:40;;;;;;;27.80;13.05;;;-2.80;71.80;;;;;;4932337;29;20199;-71
2024/01/10 06:46:06;;;;;;;34.67;14.20;;;-2.80;71.80;;;;;;4937795;28;20250;-69
2024/01/10 06:48:32;;;;;;;28.33;14.17;;;-2.90;72.00;;;;;;4940075;28;20193;-70
2024/01/10 06:50:58;;;;;;;39.07;15.70;;;-2.90;72.40;;;;;;4928091;28;20223;-70
2024/01/10 06:53:24;;;;;;;29.58;14.82;;;-2.90;72.70;;;;;;4925064;28;20426;-70
2024/01/10 06:55:49;;;;;;;32.10;14.33;;;-3.00;72.70;;;;;;4930035;29;20192;-71
2024/01/10 06:58:15;;;;;;;36.70;14.80;;;-3.10;72.10;;;;;;4930427;28;20445;-70
2024/01/10 07:00:41;;;;;;;32.83;14.43;;;-3.20;72.10;;;;;;4927448;28;20220;-70
2024/01/10 07:03:07;;;;;;;33.33;15.33;;;-3.20;72.60;;;;;;4931542;28;20192;-70
2024/01/10 07:05:33;;;;;;;39.77;16.40;;;-3.30;72.90;;;;;;4929018;29;20435;-70
2024/01/10 07:07:59;;;;;;;31.47;14.90;;;-3.30;73.00;;;;;;4929413;29;20429;-70
2024/01/10 07:10:27;;;;;;;31.48;14.90;;;-3.30;73.20;;;;;;4929961;28;20696;-71
2024/01/10 07:12:56;;;;;;;36.83;15.32;;;-3.30;73.20;;;;;;4930585;29;20189;-71
2024/01/10 07:15:22;;;;;;;41.60;16.73;;;-3.40;73.50;;;;;;4928945;28;20191;-70
2024/01/10 07:17:48;;;;;;;37.33;16.00;;;-3.70;73.30;;;;;;4934409;28;20271;-70
2024/01/10 07:20:13;;;;;;;33.67;15.18;;;-3.80;73.70;;;;;;4932266;28;20209;-71
2024/01/10 07:22:43;;;;;;;33.57;15.73;;;-3.80;73.90;;;;;;4933862;28;20262;-69
2024/01/10 07:25:14;;;;;;;35.28;15.60;;;-3.80;74.00;;;;;;4936926;28;20196;-71
2024/01/10 07:27:45;;;;;;;37.13;16.08;;;-3.70;73.90;;;;;;4940436;28;20204;-70
2024/01/10 07:30:13;;;;;;;33.65;15.27;;;-3.50;73.90;;;;;;4930198;28;20216;-71
2024/01/10 07:32:43;;;;;;;39.88;16.98;;;-3.50;73.90;;;;;;4929803;28;20359;-70
2024/01/10 07:35:10;;;;;;;47.70;17.50;;;-3.60;73.90;;;;;;4929730;28;20204;-71
2024/01/10 07:37:40;;;;;;;44.25;16.80;;;-3.70;74.20;;;;;;4927023;28;20193;-70
2024/01/10 07:40:07;;;;;;;40.95;18.13;;;-3.80;74.20;;;;;;4926304;28;20224;-71
2024/01/10 07:42:33;;;;;;;39.55;17.40;;;-3.90;74.30;;;;;;4934240;28;20217;-71
2024/01/10 07:45:03;;;;;;;40.47;16.80;;;-3.90;74.30;;;;;;4926454;28;20188;-71
2024/01/10 07:47:34;;;;;;;34.25;16.35;;;-3.90;74.30;;;;;;4929776;28;20189;-70
2024/01/10 07:49:59;;;;;;;36.22;16.27;;;-3.90;74.50;;;;;;4927929;28;20217;-71
2024/01/10 07:52:26;;;;;;;38.50;16.17;;;-3.90;74.50;;;;;;4928635;29;20661;-71
2024/01/10 07:54:51;;;;;;;30.30;14.75;;;-3.80;74.50;;;;;;4927395;28;20200;-70
2024/01/10 07:57:19;;;;;;;31.17;15.40;;;-3.60;74.30;;;;;;4929305;28;20192;-71
2024/01/10 07:59:45;;;;;;;35.63;16.50;;;-3.50;74.20;;;;;;4927026;28;20723;-71
2024/01/10 08:02:11;;;;;;;36.33;16.70;;;-3.50;73.90;;;;;;4926677;29;20228;-70
2024/01/10 08:04:37;;;;;;;29.00;15.13;;;-3.30;74.00;;;;;;4927931;28;20192;-71
2024/01/10 08:07:03;;;;;;;32.77;15.80;;;-3.30;73.90;;;;;;4929197;28;20219;-71
2024/01/10 08:09:28;;;;;;;40.57;17.53;;;-3.20;73.90;;;;;;4927494;28;21351;-70
2024/01/10 08:11:54;;;;;;;36.57;15.30;;;-3.10;73.70;;;;;;4929040;28;20228;-70
2024/01/10 08:14:20;;;;;;;34.03;16.63;;;-3.00;73.50;;;;;;4929998;29;20188;-70
2024/01/10 08:16:45;;;;;;;38.50;17.90;;;-2.90;73.50;;;;;;4932704;29;20184;-70
2024/01/10 08:19:11;;;;;;;46.80;17.27;;;-2.80;73.30;;;;;;4932965;28;20193;-70
2024/01/10 08:21:37;;;;;;;34.33;16.30;;;-2.70;73.50;;;;;;4939183;28;20222;-70
2024/01/10 08:24:03;;;;;;;42.57;18.33;;;-2.50;73.30;;;;;;4932375;28;20195;-70
2024/01/10 08:26:30;;;;;;;46.10;16.75;;;-2.40;73.00;;;;;;4931137;28;20768;-70
2024/01/10 08:28:55;;;;;;;38.05;16.50;;;-2.40;73.00;;;;;;4926665;28;20707;-70
2024/01/10 08:31:22;;;;;;;40.67;17.80;;;-2.40;72.70;;;;;;4927481;28;20212;-70
2024/01/10 08:33:48;;;;;;;32.47;16.48;;;-2.30;72.40;;;;;;4924862;28;20680;-68
2024/01/10 08:36:14;;;;;;;34.20;16.23;;;-2.20;72.10;;;;;;4930362;29;20227;-70
2024/01/10 08:38:41;;;;;;;35.08;17.95;;;-2.30;71.80;;;;;;4930887;28;20192;-70
2024/01/10 08:41:08;;;;;;;37.13;18.10;;;-2.30;72.10;;;;;;4926519;28;20268;-69
2024/01/10 08:43:34;;;;;;;36.80;17.00;;;-2.30;72.40;;;;;;4933902;28;20187;-71
2024/01/10 08:46:00;;;;;;;42.53;19.37;;;-2.20;72.10;;;;;;4939577;28;20197;-70
2024/01/10 08:48:26;;;;;;;42.03;18.38;;;-2.20;71.80;;;;;;4938300;28;20685;-70
2024/01/10 08:50:51;;;;;;;40.70;17.83;;;-2.10;72.00;;;;;;4933520;28;20299;-70
2024/01/10 08:53:18;;;;;;;44.53;19.75;;;-2.00;72.00;;;;;;4934838;29;20247;-70
2024/01/10 08:55:43;;;;;;;46.03;18.60;;;-2.10;71.80;;;;;;4935330;28;20220;-71
2024/01/10 08:58:09;;;;;;;47.37;20.20;;;-2.10;71.80;;;;;;4930837;28;20192;-69
2024/01/10 09:00:35;;;;;;;32.57;17.80;;;-2.00;72.00;;;;;;4928421;28;20756;-71
2024/01/10 09:03:04;;;;;;;40.03;17.53;;;-1.90;72.00;;;;;;4929850;28;20224;-69
2024/01/10 09:05:30;;;;;;;39.08;16.70;;;-1.80;71.70;;;;;;4932764;28;20203;-71
2024/01/10 09:07:55;;;;;;;40.87;18.73;;;-1.80;71.30;;;;;;4937723;29;20192;-69
2024/01/10 09:10:21;;;;;;;44.70;18.03;;;-1.70;71.30;;;;;;4928495;28;20204;-70
2024/01/10 09:12:47;;;;;;;34.93;18.03;;;-1.70;71.00;;;;;;4935198;28;20203;-70
2024/01/10 09:15:14;;;;;;;37.78;19.27;;;-1.70;71.00;;;;;;4933996;28;20184;-71
2024/01/10 09:17:43;;;;;;;47.75;19.75;;;-1.80;71.00;;;;;;4934411;28;20215;-71
2024/01/10 09:20:10;;;;;;;39.15;19.02;;;-1.80;71.30;;;;;;4930583;28;20213;-70
2024/01/10 09:22:37;;;;;;;47.55;19.67;;;-1.70;71.10;;;;;;4947069;28;20227;-70
2024/01/10 09:25:07;;;;;;;41.65;18.30;;;-1.60;71.00;;;;;;4940949;28;20235;-69
2024/01/10 09:27:35;;;;;;;40.78;19.65;;;-1.60;71.00;;;;;;4933118;29;20189;-71
2024/01/10 09:30:02;;;;;;;44.70;19.58;;;-1.60;70.80;;;;;;4936040;28;20220;-70
2024/01/10 09:32:31;;;;;;;43.90;19.63;;;-1.70;70.80;;;;;;4929194;28;20199;-71
2024/01/10 09:34:56;;;;;;;37.60;19.38;;;-1.80;71.00;;;;;;4933703;28;20338;-71
2024/01/10 09:37:23;;;;;;;47.37;19.50;;;-1.80;71.30;;;;;;4931694;28;20668;-71
2024/01/10 09:39:49;;;;;;;35.63;16.42;;;-1.80;71.30;;;;;;4930255;28;20565;-71
2024/01/10 09:42:15;;;;;;;42.27;19.00;;;-1.80;71.40;;;;;;4934024;28;20224;-70
2024/01/10 09:44:41;;;;;;;53.73;20.43;;;-1.90;71.40;;;;;;4936155;29;20268;-71
2024/01/10 09:47:08;;;;;;;41.15;19.42;;;-1.80;71.70;;;;;;4935669;28;20185;-72
2024/01/10 09:49:34;;;;;;;38.45;18.98;;;-1.90;71.40;;;;;;4931337;28;20272;-72
2024/01/10 09:52:04;;;;;;;40.63;19.43;;;-1.80;71.80;;;;;;4926881;28;20242;-71
2024/01/10 09:54:31;;;;;;;49.03;21.00;;;-1.70;71.70;;;;;;4923040;28;20184;-70
2024/01/10 09:56:57;;;;;;;44.72;18.55;;;-1.80;71.60;;;;;;4932117;28;20192;-71
2024/01/10 09:59:23;;;;;;;47.08;19.27;;;-1.80;71.70;;;;;;4936918;28;20207;-69
2024/01/10 10:01:51;;;;;;;43.08;21.25;;;-1.70;71.80;;;;;;4926244;28;20237;-70
2024/01/10 10:04:19;;;;;;;43.00;20.05;;;-1.60;71.70;;;;;;4933645;29;20204;-69
2024/01/10 10:06:45;;;;;;;48.08;19.80;;;-1.60;71.60;;;;;;4933789;28;20598;-71
2024/01/10 10:09:12;;;;;;;47.10;20.00;;;-1.60;71.60;;;;;;4930158;29;20275;-71
2024/01/10 10:11:38;;;;;;;43.70;20.77;;;-1.40;71.60;;;;;;4927174;28;20213;-70
2024/01/10 10:14:30;;;;;;;47.70;18.83;;;-1.40;71.40;;;;;;4932607;29;20671;-69
2024/01/10 10:16:56;;;;;;;40.80;19.75;;;-1.40;71.40;;;;;;4930043;28;20215;-70
2024/01/10 10:19:23;;;;;;;40.00;19.03;;;-1.40;71.70;;;;;;4927939;28;20188;-70
2024/01/10 10:21:48;;;;;;;46.10;20.33;;;-1.30;71.60;;;;;;4926667;28;20223;-69
2024/01/10 10:24:14;;;;;;;39.70;18.97;;;-1.20;71.40;;;;;;4927592;28;20185;-69
2024/01/10 10:26:41;;;;;;;44.53;21.50;;;-1.10;71.60;;;;;;4931646;29;20215;-70
2024/01/10 10:29:07;;;;;;;50.80;22.35;;;-1.00;71.60;;;;;;4932342;29;20590;-71
2024/01/10 10:31:32;;;;;;;41.57;18.57;;;-1.00;71.60;;;;;;4929087;28;20307;-70
2024/01/10 10:34:00;;;;;;;53.40;21.83;;;-1.00;71.00;;;;;;4930233;28;20433;-70
2024/01/10 10:36:26;;;;;;;42.40;18.85;;;-1.00;71.00;;;;;;4929580;28;20200;-69
2024/01/10 10:38:52;;;;;;;44.60;20.80;;;-0.70;71.00;;;;;;4933415;28;20204;-69
2024/01/10 10:41:18;;;;;;;45.90;22.70;;;-0.40;70.70;;;;;;4930816;28;20235;-70
2024/01/10 10:43:44;;;;;;;44.90;21.80;;;-0.20;69.80;;;;;;4929396;28;20865;-70
2024/01/10 10:46:14;;;;;;;46.93;21.40;;;0.00;69.40;;;;;;4935846;29;20185;-70
2024/01/10 10:48:41;;;;;;;49.40;22.60;;;0.30;68.80;;;;;;4931532;29;20432;-71
2024/01/10 10:51:21;;;;;;;54.58;21.50;;;0.50;67.90;;;;;;4933726;28;20217;-70
2024/01/10 10:53:48;;;;;;;48.78;22.45;;;0.60;67.50;;;;;;4932032;28;20295;-70
2024/01/10 10:56:13;;;;;;;47.95;21.15;;;0.60;67.20;;;;;;4931833;29;20199;-69
2024/01/10 10:58:41;;;;;;;48.83;21.80;;;0.60;67.20;;;;;;4935719;28;20189;-69
2024/01/10 11:01:08;;;;;;;45.28;21.75;;;0.60;67.20;;;;;;4924042;28;20234;-70
2024/01/10 11:03:37;;;;;;;49.75;21.67;;;0.40;67.20;;;;;;4931304;28;20188;-70
2024/01/10 11:06:04;;;;;;;45.50;22.13;;;0.50;68.00;;;;;;4931475;28;20185;-70
2024/01/10 11:08:35;;;;;;;51.90;22.02;;;0.80;67.50;;;;;;4932298;28;20197;-70
2024/01/10 11:11:04;;;;;;;46.85;22.38;;;1.00;66.90;;;;;;4925389;28;20212;-73
2024/01/10 11:13:39;;;;;;;56.83;24.13;;;1.00;66.10;;;;;;4934188;29;20259;-69
2024/01/10 11:16:25;;;;;;;45.55;21.52;;;0.90;66.30;;;;;;4934061;29;20785;-71
2024/01/10 11:19:18;;;;;;;48.20;21.67;;;0.80;66.60;;;;;;4931133;29;20271;-70
2024/01/10 11:21:53;;;;;;;41.88;22.13;;;0.80;66.70;;;;;;4935650;28;20247;-70
2024/01/10 11:24:20;;;;;;;44.05;21.92;;;0.70;67.00;;;;;;4933135;29;20275;-71
2024/01/10 11:26:46;;;;;;;44.72;21.75;;;0.50;67.60;;;;;;4929242;28;20254;-69
2024/01/10 11:29:12;;;;;;;50.87;20.87;;;0.30;67.90;;;;;;4932738;28;20208;-71
2024/01/10 11:31:39;;;;;;;50.83;22.83;;;0.20;68.30;;;;;;4932621;28;20247;-69
2024/01/10 11:34:05;;;;;;;47.05;22.63;;;0.10;68.60;;;;;;4935648;28;20296;-69
2024/01/10 11:36:31;;;;;;;51.27;22.77;;;0.10;69.20;;;;;;4937161;28;20212;-68
2024/01/10 11:39:04;;;;;;;50.70;21.42;;;0.00;69.40;;;;;;4932642;28;20192;-71
2024/01/10 11:41:35;;;;;;;50.83;22.70;;;0.00;69.70;;;;;;4931365;28;20303;-70
2024/01/10 11:44:10;;;;;;;52.25;21.27;;;0.00;69.80;;;;;;4931353;29;20195;-71
2024/01/10 11:46:39;;;;;;;52.92;21.95;;;-0.10;70.10;;;;;;4931237;28;20184;-69
2024/01/10 11:49:08;;;;;;;47.83;22.13;;;-0.10;70.20;;;;;;4934526;28;20204;-69
2024/01/10 11:51:38;;;;;;;47.78;21.70;;;0.00;70.20;;;;;;4928060;28;20279;-69
2024/01/10 11:54:04;;;;;;;55.38;22.90;;;-0.10;70.50;;;;;;4932546;29;20192;-69
2024/01/10 11:56:49;;;;;;;43.17;21.70;;;-0.10;70.50;;;;;;4930842;28;20193;-71
2024/01/10 11:59:16;;;;;;;46.90;21.90;;;0.10;70.70;;;;;;4929193;29;20574;-70
2024/01/10 12:01:42;;;;;;;45.00;22.73;;;0.20;70.20;;;;;;4925282;28;20286;-69
2024/01/10 12:04:11;;;;;;;46.75;23.80;;;0.30;70.40;;;;;;4938933;28;20189;-69
2024/01/10 12:06:38;;;;;;;49.78;22.40;;;0.30;70.10;;;;;;4930259;29;20242;-70
2024/01/10 12:09:11;;;;;;;50.40;23.55;;;0.40;70.10;;;;;;4940046;28;20763;-70
2024/01/10 12:11:40;;;;;;;44.95;22.00;;;0.50;70.10;;;;;;4936626;28;20270;-70
2024/01/10 12:14:06;;;;;;;49.13;22.38;;;0.50;70.10;;;;;;4926832;29;20278;-73
2024/01/10 12:16:35;;;;;;;55.10;23.10;;;0.60;69.50;;;;;;4943638;28;20684;-70
2024/01/10 12:19:01;;;;;;;52.47;24.50;;;0.50;69.80;;;;;;4929125;28;20852;-70
2024/01/10 12:21:26;;;;;;;47.50;22.70;;;0.40;69.50;;;;;;4939282;28;20278;-70
2024/01/10 12:23:52;;;;;;;45.33;22.43;;;0.40;70.10;;;;;;4926365;28;20430;-70
2024/01/10 12:26:19;;;;;;;44.70;21.83;;;0.40;70.10;;;;;;4948356;28;20238;-71